Kingman, AZ

6:00 PM MST on October 01, 2014 (GMT -0700)
Kingman | Change Station
CLOSE
Current Station
Airport
Location: Kingman,
Elevation: 1051 m
Nearby Weather Stations

Elev 1051 m 35.26 °N, 113.93 °W | Updated 1 hour ago

Clear
Clear
24 °C
Feels Like 24 °C
N
33
Wind Variable Wind from North

Today
High -- | Low -- °C
--% Chance of Precip.
Yesterday
High -- | Low -- °C
Precip. -- mm
6:31 AM 6:19 PM
First Quarter, 53% visible
Pressure 1008 hPa
Visibility 16.1 kilometers
Clouds Clear
Dew Point 0 °C
Humidity 20%
Rainfall 0.0 mm
Snow Depth 0 in , 0 in , 0 in
UV 1 out of 12
Pollen 5.30 out of 12
Air Quality Not available.
Flu Activity Not available.
METAR KIGM 012351Z AUTO 35018KT 10SM CLR 24/00 A2996 RMK AO2 SLP084 T02440000 10267 20239 53008

More Conditions Fewer Conditions

Pressure 1008 hPa
Visibility 16.1 kilometers
Clouds Clear
Dew Point 0 °C
Humidity 20%
Rainfall 0.0 mm
Snow Depth 0 in , 0 in , 0 in
UV 1 out of 12
Pollen 5.30 out of 12
Air Quality Not available.
Flu Activity Not available.
METAR KIGM 012351Z AUTO 35018KT 10SM CLR 24/00 A2996 RMK AO2 SLP084 T02440000 10267 20239 53008

More Conditions Fewer Conditions

10-Day Weather Forecast

Almanac

Astronomy

Oct. 01, 2014 Rise Set
Actual Time 6:31 AM MST 6:19 PM MST
Civil Twilight 6:05 AM MST 6:45 PM MST
Nautical Twilight 5:36 AM MST 7:14 PM MST
Astronomical Twilight 5:06 AM MST 7:44 PM MST
Moon 1:26 PM MST (10/1) No Moon Set
Length of Visible Light 12h 39m
Length of Day
11h 48m
Tomorrow will be 2m 11s shorter.
First Quarter, 53% of the Moon is Illuminated
Today
First Quarter
Oct 8
Full
Oct 15
Last Quarter
Oct 23
New
Oct 30
First Quarter

Today's Extremes

State Highs State Lows

Community

WunderPhotos

Upload Photos

1,758,109 photos uploaded!

WunderBlogs® & News

Nearby

Snow Depth

Station Depth Elevation
Beaver Head 0 in 7990 ft
Snowslide Canyon 0 in 9730 ft
Workman Creek 0 in 6900 ft
Promontory 0 in 7930 ft
White Horse Lake 0 in 7180 ft

Earthquake Activity

City Distance Mag. Time & Date
No recent earthquake activity has been reported nearby.
Minimum magnitude displayed is 2.5.

Coastal Water Temperatures

Place Temperature
No Stations Reporting

Nearby Weather Stations